Woodland Hills, CA

8:12 PM PDT on September 17, 2014 (GMT -0700)
At Gonzales Drive | Change Station
CLOSE
Current Station
Personal Weather Station
Location: Woodland Hills, CA
Elevation: 984 ft
Nearby Weather Stations

Elev 984 ft 34.17 °N, 118.63 °W | Updated 7 seconds ago

Clear
Clear
77.9 °F
Feels Like 79 °F
N
0.0
Wind Variable Wind from WSW
Gusts 3.0 mph

Today
High -- | Low -- °F
--% Chance of Precip.
Yesterday
High -- | Low -- °F
Precip. -- in
6:39 AM 6:58 PM
Waning Crescent, 31% visible
Pressure 29.71 in
Visibility 10.0 miles
Clouds Clear
Heat Index 79 °F
Dew Point 54 °F
Humidity 44%
Rainfall 0.00 in
Snow Depth 1 in , 1 in , 0 in
UV 0 out of 12
Pollen 6.90 out of 12
Ozone Good
PM2.5 Moderate
Flu Activity Not available.
METAR KVNY 180251Z VRB03KT 10SM CLR 28/12 A2974 RMK AO2 SLP060 T02830117 51012

More Conditions Fewer Conditions

Pressure 29.71 in
Visibility 10.0 miles
Clouds Clear
Heat Index 79 °F
Dew Point 54 °F
Humidity 44%
Rainfall 0.00 in
Snow Depth 1 in , 1 in , 0 in
UV 0 out of 12
Pollen 6.90 out of 12
Ozone Good
PM2.5 Moderate
Flu Activity Not available.
METAR KVNY 180251Z VRB03KT 10SM CLR 28/12 A2974 RMK AO2 SLP060 T02830117 51012

More Conditions Fewer Conditions

10-Day Weather Forecast

Almanac

Astronomy

Sep. 17, 2014 Rise Set
Actual Time 6:39 AM PDT 6:58 PM PDT
Civil Twilight 6:14 AM PDT 7:23 PM PDT
Nautical Twilight 5:44 AM PDT 7:52 PM PDT
Astronomical Twilight 5:14 AM PDT 8:22 PM PDT
Moon 12:54 AM PDT (9/17) 3:00 PM PDT (9/17)
Length of Visible Light 13h 09m
Length of Day
12h 19m
Tomorrow will be 2m 6s shorter.
Waning Crescent, 31% of the Moon is Illuminated
Today
Waning Crescent
Sep 24
New
Oct 1
First Quarter
Oct 8
Full
Oct 15
Last Quarter

Today's Extremes

State Highs State Lows

Community

WunderPhotos

Upload Photos

1,754,282 photos uploaded!

Nearby

Air Quality

  Air Quality AQ Index Pollutant
Yesterday Unhealthy for Sensitive Groups
OZONE
Yesterday Moderate
PM2.5
Current Moderate
PM2.5
Current Good
OZONE
Thursday Good
PM10
Thursday Good
OZONE
Thursday Good
CO
Thursday Good
NO2

Snow Depth

Station Depth Elevation
Adin Mountain 1 in 6200 ft
Leavitt Lake 0 in 9400 ft
Summit Meadow 1 in 9122 ft
Leavitt Meadows 0 in 7200 ft
CSS Lab 2 in 6900 ft

Earthquake Activity

City Distance Mag. Time & Date
No recent earthquake activity has been reported nearby.
Minimum magnitude displayed is 2.5.

Coastal Water Temperatures

Place Temperature
Santa Monica Pier 72.0 °F
Los Angeles, CA 66.9 °F
La Jolla, CA 70.0 °F

Nearby Weather Stations